Wednesday, November 26, 2014
05:25 UTC
  |  Log In   |  Register Free
Airport Search:

Raton Municipal/Crews Field Airport
(KRTN)

Raton Municipal/Crews Field Airport Diagram
No Airport Diagram Available

FAA data valid effective November 13, 2014 - January 08, 2015 (unless otherwise noted).

 
 
 
 
 
 
 
 
 
 
 
 
 
 

Current Aviation Weather for Raton Municipal/Crews Field Airport (KRTN)

The most recent METAR observation for KRTN was updated at: 0341
METAR Summary (Translated METAR)
KRTN
260253Z AUTO 33018G23KT 10SM CLR 08/M08 A3004 RMK AO2 SLP174 T00831078 51019
KTAD
260254Z AUTO 29008KT 10SM CLR 06/M06 A3000 RMK AO2 SLP167 T00561056 51015
(32 nm NE from KRTN)
KAXX
260455Z AUTO 23016G21KT 10SM CLR M03/M14 A3023 RMK AO2 T10271140
(42.6 nm SW from KRTN)
TAF
No TAF information found within 50 nm of KRTN
  Airport Weather Conditions for KRTN

 Current Weather at RTN
31° F
Fair
West winds at 9.2 mph
RTN NOAA Radar

Pressure: 30.05 in
Humidity: 56%
Wind: West at 9.2 MPH (8 KT)
Dew Point: 17.1°F
Visibility: 10.00 mi


Airport Weather Forecast for KRTN

Translated METAR and TAF for KRTN
Translated METAR for KRTN (0520 UTC 26 November 2014)
found at http://aviationweather.gov/adds/metars/
 
METAR text: KRTN 260453Z AUTO 25008KT 10SM CLR M01/M08 A3005 RMK AO2 SLP187 T10061083
Conditions at: KRTN (RATON , NM, US) observed 0453 UTC 26 November 2014
Temperature: -0.6°C (31°F)
Dewpoint: -8.3°C (17°F) [RH = 56%]
Pressure (altimeter): 30.05 inches Hg (1017.7 mb)
[Sea-level pressure: 1018.7 mb]
Winds: from the WSW (250 degrees) at 9 MPH (8 knots; 4.2 m/s)
Visibility: 10 or more miles (16+ km)
Ceiling: at least 12,000 feet AGL
Clouds: sky clear below 12,000 feet AGL
Weather: automated observation with no human augmentation;
there may or may not be significant weather present at this time
Translated TAF for KRTN

There is no translated TAF available for this airport

Find All Airport Services Find A Hotel Find A Rental Car Find A Golf Course Find A Restaurant $100 Hamburger



FBO's on the Field
FBO Company Facility Photos Services Transportation Aviation Fuel Prices: Prices include tax
Catering Weather Repair Courtesy Rental Type 100LL JetA JetA+ MOGAS 8087
 
Pegasus Aviation

This FBO has not yet been rated
FS:Phillips 66
Last Updated: Nov-06
Login to update fuel prices
SS:
Contact Pegasus AviationMore FBO Information
 
Add another FBO Facility Photos Catering Weather Repair Courtesy Rental Type 100LL JetA JetA+ MOGAS 8087
Services Transportation Aviation Fuel Prices: Prices include tax


model-print
model-print
model-print
model-print